sensor_id;sensor_type;location;lat;lon;timestamp;temperature;humidity
56771;DHT22;42641;59.794;17.616;2023-02-15T00:02:19;3.40;99.90
56771;DHT22;42641;59.794;17.616;2023-02-15T00:04:46;3.40;99.90
56771;DHT22;42641;59.794;17.616;2023-02-15T00:07:17;3.40;99.90
56771;DHT22;42641;59.794;17.616;2023-02-15T00:09:45;3.40;99.90
56771;DHT22;42641;59.794;17.616;2023-02-15T00:12:12;3.40;99.90
56771;DHT22;42641;59.794;17.616;2023-02-15T00:14:39;3.40;99.90
56771;DHT22;42641;59.794;17.616;2023-02-15T00:17:05;3.40;99.90
56771;DHT22;42641;59.794;17.616;2023-02-15T00:19:31;3.40;99.90
56771;DHT22;42641;59.794;17.616;2023-02-15T00:21:58;3.40;99.90
56771;DHT22;42641;59.794;17.616;2023-02-15T00:24:24;3.40;99.90
56771;DHT22;42641;59.794;17.616;2023-02-15T00:26:50;3.40;99.90
56771;DHT22;42641;59.794;17.616;2023-02-15T00:29:18;3.40;99.90
56771;DHT22;42641;59.794;17.616;2023-02-15T00:31:45;3.30;99.90
56771;DHT22;42641;59.794;17.616;2023-02-15T00:34:23;3.40;99.90
56771;DHT22;42641;59.794;17.616;2023-02-15T00:36:50;3.40;99.90
56771;DHT22;42641;59.794;17.616;2023-02-15T00:39:17;3.40;99.90
56771;DHT22;42641;59.794;17.616;2023-02-15T00:41:44;3.40;99.90
56771;DHT22;42641;59.794;17.616;2023-02-15T00:44:12;3.30;99.90
56771;DHT22;42641;59.794;17.616;2023-02-15T00:46:38;3.30;99.90
56771;DHT22;42641;59.794;17.616;2023-02-15T00:49:07;3.20;99.90
56771;DHT22;42641;59.794;17.616;2023-02-15T00:51:34;3.20;99.90
56771;DHT22;42641;59.794;17.616;2023-02-15T00:54:01;3.10;99.90
56771;DHT22;42641;59.794;17.616;2023-02-15T00:56:29;3.10;99.90
56771;DHT22;42641;59.794;17.616;2023-02-15T00:58:55;3.10;99.90
56771;DHT22;42641;59.794;17.616;2023-02-15T01:01:22;3.00;99.90
56771;DHT22;42641;59.794;17.616;2023-02-15T01:03:50;3.00;99.90
56771;DHT22;42641;59.794;17.616;2023-02-15T01:06:17;3.00;99.90
56771;DHT22;42641;59.794;17.616;2023-02-15T01:08:45;2.90;99.90
56771;DHT22;42641;59.794;17.616;2023-02-15T01:11:15;2.90;99.90
56771;DHT22;42641;59.794;17.616;2023-02-15T01:13:49;2.80;99.90
56771;DHT22;42641;59.794;17.616;2023-02-15T01:16:16;2.70;99.90
56771;DHT22;42641;59.794;17.616;2023-02-15T01:18:43;2.60;99.90
56771;DHT22;42641;59.794;17.616;2023-02-15T01:21:14;2.60;99.90
56771;DHT22;42641;59.794;17.616;2023-02-15T01:23:44;2.60;99.90
56771;DHT22;42641;59.794;17.616;2023-02-15T01:26:13;2.60;99.90
56771;DHT22;42641;59.794;17.616;2023-02-15T01:28:39;2.60;99.90
56771;DHT22;42641;59.794;17.616;2023-02-15T01:31:08;2.60;99.90
56771;DHT22;42641;59.794;17.616;2023-02-15T01:33:36;2.70;99.90
56771;DHT22;42641;59.794;17.616;2023-02-15T01:36:04;2.60;99.90
56771;DHT22;42641;59.794;17.616;2023-02-15T01:38:32;2.70;99.90
56771;DHT22;42641;59.794;17.616;2023-02-15T01:40:58;2.70;99.90
56771;DHT22;42641;59.794;17.616;2023-02-15T01:43:59;2.70;99.90
56771;DHT22;42641;59.794;17.616;2023-02-15T01:49:14;2.80;99.90
56771;DHT22;42641;59.794;17.616;2023-02-15T01:51:43;2.90;99.90
56771;DHT22;42641;59.794;17.616;2023-02-15T01:54:18;2.90;99.90
56771;DHT22;42641;59.794;17.616;2023-02-15T01:56:47;2.90;99.90
56771;DHT22;42641;59.794;17.616;2023-02-15T01:59:19;2.90;99.90
56771;DHT22;42641;59.794;17.616;2023-02-15T02:01:49;2.90;99.90
56771;DHT22;42641;59.794;17.616;2023-02-15T02:04:25;3.00;99.90
56771;DHT22;42641;59.794;17.616;2023-02-15T02:06:57;3.00;99.90
56771;DHT22;42641;59.794;17.616;2023-02-15T02:09:24;3.20;99.90
56771;DHT22;42641;59.794;17.616;2023-02-15T02:11:50;3.20;99.90
56771;DHT22;42641;59.794;17.616;2023-02-15T02:14:18;3.20;99.90
56771;DHT22;42641;59.794;17.616;2023-02-15T02:31:39;3.20;99.90
56771;DHT22;42641;59.794;17.616;2023-02-15T02:37:06;3.20;99.90
56771;DHT22;42641;59.794;17.616;2023-02-15T02:40:15;3.30;99.90
56771;DHT22;42641;59.794;17.616;2023-02-15T02:42:52;3.30;99.90
56771;DHT22;42641;59.794;17.616;2023-02-15T02:47:56;3.30;99.90
56771;DHT22;42641;59.794;17.616;2023-02-15T02:50:28;3.30;99.90
56771;DHT22;42641;59.794;17.616;2023-02-15T02:52:57;3.40;99.90
56771;DHT22;42641;59.794;17.616;2023-02-15T03:00:54;3.30;99.90
56771;DHT22;42641;59.794;17.616;2023-02-15T03:03:27;3.30;99.90
56771;DHT22;42641;59.794;17.616;2023-02-15T03:06:00;3.30;99.90
56771;DHT22;42641;59.794;17.616;2023-02-15T03:08:38;3.20;99.90
56771;DHT22;42641;59.794;17.616;2023-02-15T03:11:08;3.20;99.90
56771;DHT22;42641;59.794;17.616;2023-02-15T03:13:35;3.30;99.90
56771;DHT22;42641;59.794;17.616;2023-02-15T03:16:05;3.30;99.90
56771;DHT22;42641;59.794;17.616;2023-02-15T03:19:01;3.30;99.90
56771;DHT22;42641;59.794;17.616;2023-02-15T03:24:12;3.50;99.90
56771;DHT22;42641;59.794;17.616;2023-02-15T03:26:43;3.40;99.90
56771;DHT22;42641;59.794;17.616;2023-02-15T03:29:12;3.40;99.90
56771;DHT22;42641;59.794;17.616;2023-02-15T03:31:42;3.40;99.90
56771;DHT22;42641;59.794;17.616;2023-02-15T03:34:11;3.40;99.90
56771;DHT22;42641;59.794;17.616;2023-02-15T03:36:46;3.40;99.90
56771;DHT22;42641;59.794;17.616;2023-02-15T03:39:22;3.40;99.90
56771;DHT22;42641;59.794;17.616;2023-02-15T03:42:28;3.50;99.90
56771;DHT22;42641;59.794;17.616;2023-02-15T03:45:05;3.50;99.90
56771;DHT22;42641;59.794;17.616;2023-02-15T03:47:37;3.40;99.90
56771;DHT22;42641;59.794;17.616;2023-02-15T03:50:26;3.40;99.90
56771;DHT22;42641;59.794;17.616;2023-02-15T03:53:15;3.50;99.90
56771;DHT22;42641;59.794;17.616;2023-02-15T03:55:46;3.50;99.90
56771;DHT22;42641;59.794;17.616;2023-02-15T03:58:13;3.50;99.90
56771;DHT22;42641;59.794;17.616;2023-02-15T04:01:23;3.50;99.90
56771;DHT22;42641;59.794;17.616;2023-02-15T04:04:15;3.50;99.90
56771;DHT22;42641;59.794;17.616;2023-02-15T04:06:44;3.60;99.90
56771;DHT22;42641;59.794;17.616;2023-02-15T04:09:12;3.60;99.90
56771;DHT22;42641;59.794;17.616;2023-02-15T04:11:57;3.60;99.90
56771;DHT22;42641;59.794;17.616;2023-02-15T04:14:24;3.60;99.90
56771;DHT22;42641;59.794;17.616;2023-02-15T04:17:09;3.60;99.90
56771;DHT22;42641;59.794;17.616;2023-02-15T04:19:36;3.60;99.90
56771;DHT22;42641;59.794;17.616;2023-02-15T04:22:21;3.70;99.90
56771;DHT22;42641;59.794;17.616;2023-02-15T04:25:06;3.70;99.90
56771;DHT22;42641;59.794;17.616;2023-02-15T04:27:36;3.70;99.90
56771;DHT22;42641;59.794;17.616;2023-02-15T04:30:03;3.80;99.90
56771;DHT22;42641;59.794;17.616;2023-02-15T04:32:30;3.80;99.90
56771;DHT22;42641;59.794;17.616;2023-02-15T04:34:56;3.80;99.90
56771;DHT22;42641;59.794;17.616;2023-02-15T04:37:22;3.70;99.90
56771;DHT22;42641;59.794;17.616;2023-02-15T04:39:49;3.70;99.90
56771;DHT22;42641;59.794;17.616;2023-02-15T04:42:16;3.70;99.90
56771;DHT22;42641;59.794;17.616;2023-02-15T04:44:43;3.60;99.90
56771;DHT22;42641;59.794;17.616;2023-02-15T04:47:09;3.60;99.90
56771;DHT22;42641;59.794;17.616;2023-02-15T04:49:36;3.60;99.90
56771;DHT22;42641;59.794;17.616;2023-02-15T04:52:02;3.70;99.90
56771;DHT22;42641;59.794;17.616;2023-02-15T04:54:29;3.70;99.90
56771;DHT22;42641;59.794;17.616;2023-02-15T04:56:55;3.70;99.90
56771;DHT22;42641;59.794;17.616;2023-02-15T04:59:21;3.70;99.90
56771;DHT22;42641;59.794;17.616;2023-02-15T05:01:48;3.70;99.90
56771;DHT22;42641;59.794;17.616;2023-02-15T05:04:14;3.70;99.90
56771;DHT22;42641;59.794;17.616;2023-02-15T05:06:40;3.70;99.90
56771;DHT22;42641;59.794;17.616;2023-02-15T05:09:07;3.70;99.90
56771;DHT22;42641;59.794;17.616;2023-02-15T05:11:33;3.80;99.90
56771;DHT22;42641;59.794;17.616;2023-02-15T05:14:00;3.80;99.90
56771;DHT22;42641;59.794;17.616;2023-02-15T05:16:26;3.80;99.90
56771;DHT22;42641;59.794;17.616;2023-02-15T05:18:53;3.80;99.90
56771;DHT22;42641;59.794;17.616;2023-02-15T05:21:20;3.80;99.90
56771;DHT22;42641;59.794;17.616;2023-02-15T05:23:46;3.90;99.90
56771;DHT22;42641;59.794;17.616;2023-02-15T05:26:16;3.90;99.90
56771;DHT22;42641;59.794;17.616;2023-02-15T05:29:03;3.90;99.90
56771;DHT22;42641;59.794;17.616;2023-02-15T05:31:30;3.80;99.90
56771;DHT22;42641;59.794;17.616;2023-02-15T05:33:57;3.80;99.90
56771;DHT22;42641;59.794;17.616;2023-02-15T05:36:23;3.90;99.90
56771;DHT22;42641;59.794;17.616;2023-02-15T05:38:50;3.90;99.90
56771;DHT22;42641;59.794;17.616;2023-02-15T05:41:16;3.90;99.90
56771;DHT22;42641;59.794;17.616;2023-02-15T05:43:43;3.90;99.90
56771;DHT22;42641;59.794;17.616;2023-02-15T05:46:09;3.90;99.90
56771;DHT22;42641;59.794;17.616;2023-02-15T05:48:36;3.90;99.90
56771;DHT22;42641;59.794;17.616;2023-02-15T05:51:05;4.00;99.90
56771;DHT22;42641;59.794;17.616;2023-02-15T05:53:35;4.00;99.90
56771;DHT22;42641;59.794;17.616;2023-02-15T05:56:02;4.00;99.90
56771;DHT22;42641;59.794;17.616;2023-02-15T05:58:31;4.00;99.90
56771;DHT22;42641;59.794;17.616;2023-02-15T06:00:58;4.00;99.90
56771;DHT22;42641;59.794;17.616;2023-02-15T06:03:24;4.10;99.90
56771;DHT22;42641;59.794;17.616;2023-02-15T06:05:52;4.10;99.90
56771;DHT22;42641;59.794;17.616;2023-02-15T06:08:19;4.00;99.90
56771;DHT22;42641;59.794;17.616;2023-02-15T06:10:46;4.00;99.90
56771;DHT22;42641;59.794;17.616;2023-02-15T06:13:12;4.00;99.90
56771;DHT22;42641;59.794;17.616;2023-02-15T06:15:39;4.00;99.90
56771;DHT22;42641;59.794;17.616;2023-02-15T06:18:05;3.80;99.90
56771;DHT22;42641;59.794;17.616;2023-02-15T06:20:31;3.80;99.90
56771;DHT22;42641;59.794;17.616;2023-02-15T06:22:58;3.60;99.90
56771;DHT22;42641;59.794;17.616;2023-02-15T06:25:25;3.60;99.90
56771;DHT22;42641;59.794;17.616;2023-02-15T06:27:51;3.60;99.90
56771;DHT22;42641;59.794;17.616;2023-02-15T06:30:17;3.50;99.90
56771;DHT22;42641;59.794;17.616;2023-02-15T06:32:44;3.50;99.90
56771;DHT22;42641;59.794;17.616;2023-02-15T06:35:10;3.50;99.90
56771;DHT22;42641;59.794;17.616;2023-02-15T06:37:38;3.50;99.90
56771;DHT22;42641;59.794;17.616;2023-02-15T06:40:05;3.50;99.90
56771;DHT22;42641;59.794;17.616;2023-02-15T06:42:32;3.50;99.90
56771;DHT22;42641;59.794;17.616;2023-02-15T06:44:58;3.50;99.90
56771;DHT22;42641;59.794;17.616;2023-02-15T06:47:26;3.60;99.90
56771;DHT22;42641;59.794;17.616;2023-02-15T06:49:52;3.60;99.90
56771;DHT22;42641;59.794;17.616;2023-02-15T06:52:19;3.60;99.90
56771;DHT22;42641;59.794;17.616;2023-02-15T06:54:45;3.60;99.90
56771;DHT22;42641;59.794;17.616;2023-02-15T06:57:11;3.60;99.90
56771;DHT22;42641;59.794;17.616;2023-02-15T06:59:38;3.60;99.90
56771;DHT22;42641;59.794;17.616;2023-02-15T07:02:04;3.60;99.90
56771;DHT22;42641;59.794;17.616;2023-02-15T07:04:30;3.70;99.90
56771;DHT22;42641;59.794;17.616;2023-02-15T07:06:57;3.80;99.90
56771;DHT22;42641;59.794;17.616;2023-02-15T07:09:23;3.80;99.90
56771;DHT22;42641;59.794;17.616;2023-02-15T07:11:50;3.90;99.90
56771;DHT22;42641;59.794;17.616;2023-02-15T07:14:35;3.90;99.90
56771;DHT22;42641;59.794;17.616;2023-02-15T07:17:01;3.90;99.90
56771;DHT22;42641;59.794;17.616;2023-02-15T07:19:27;3.90;99.90
56771;DHT22;42641;59.794;17.616;2023-02-15T07:21:54;3.90;99.90
56771;DHT22;42641;59.794;17.616;2023-02-15T07:24:20;3.90;99.90
56771;DHT22;42641;59.794;17.616;2023-02-15T07:26:46;3.90;99.90
56771;DHT22;42641;59.794;17.616;2023-02-15T07:29:13;3.90;99.90
56771;DHT22;42641;59.794;17.616;2023-02-15T07:31:39;4.00;99.90
56771;DHT22;42641;59.794;17.616;2023-02-15T07:34:06;4.00;99.90
56771;DHT22;42641;59.794;17.616;2023-02-15T07:36:34;4.00;99.90
56771;DHT22;42641;59.794;17.616;2023-02-15T07:39:00;4.00;99.90
56771;DHT22;42641;59.794;17.616;2023-02-15T07:41:26;4.10;99.90
56771;DHT22;42641;59.794;17.616;2023-02-15T07:43:53;4.10;99.90
56771;DHT22;42641;59.794;17.616;2023-02-15T07:46:19;4.10;99.90
56771;DHT22;42641;59.794;17.616;2023-02-15T07:48:47;4.10;99.90
56771;DHT22;42641;59.794;17.616;2023-02-15T07:51:14;4.10;99.90
56771;DHT22;42641;59.794;17.616;2023-02-15T07:53:41;4.10;99.90
56771;DHT22;42641;59.794;17.616;2023-02-15T07:56:10;4.10;99.90
56771;DHT22;42641;59.794;17.616;2023-02-15T07:58:37;4.20;99.90
56771;DHT22;42641;59.794;17.616;2023-02-15T08:01:25;4.20;99.90
56771;DHT22;42641;59.794;17.616;2023-02-15T08:03:53;4.20;99.90
56771;DHT22;42641;59.794;17.616;2023-02-15T08:06:21;4.20;99.90
56771;DHT22;42641;59.794;17.616;2023-02-15T08:08:48;4.20;99.90
56771;DHT22;42641;59.794;17.616;2023-02-15T08:11:23;4.30;99.90
56771;DHT22;42641;59.794;17.616;2023-02-15T08:14:09;4.30;99.90
56771;DHT22;42641;59.794;17.616;2023-02-15T08:16:37;4.30;99.90
56771;DHT22;42641;59.794;17.616;2023-02-15T08:19:09;4.40;99.90
56771;DHT22;42641;59.794;17.616;2023-02-15T08:21:38;4.40;99.90
56771;DHT22;42641;59.794;17.616;2023-02-15T08:24:06;4.40;99.90
56771;DHT22;42641;59.794;17.616;2023-02-15T08:26:33;4.40;99.90
56771;DHT22;42641;59.794;17.616;2023-02-15T08:29:00;4.40;99.90
56771;DHT22;42641;59.794;17.616;2023-02-15T08:31:28;4.40;99.90
56771;DHT22;42641;59.794;17.616;2023-02-15T08:33:56;4.40;99.90
56771;DHT22;42641;59.794;17.616;2023-02-15T08:36:25;4.40;99.90
56771;DHT22;42641;59.794;17.616;2023-02-15T08:38:53;4.40;99.90
56771;DHT22;42641;59.794;17.616;2023-02-15T08:41:31;4.40;99.90
56771;DHT22;42641;59.794;17.616;2023-02-15T08:44:00;4.40;99.90
56771;DHT22;42641;59.794;17.616;2023-02-15T08:46:29;4.40;99.90
56771;DHT22;42641;59.794;17.616;2023-02-15T08:48:56;4.40;99.90
56771;DHT22;42641;59.794;17.616;2023-02-15T08:51:27;4.40;99.90
56771;DHT22;42641;59.794;17.616;2023-02-15T08:53:56;4.50;99.90
56771;DHT22;42641;59.794;17.616;2023-02-15T08:56:25;4.50;99.90
56771;DHT22;42641;59.794;17.616;2023-02-15T08:58:55;4.50;99.90
56771;DHT22;42641;59.794;17.616;2023-02-15T09:01:28;4.50;99.90
56771;DHT22;42641;59.794;17.616;2023-02-15T09:03:57;4.50;99.90
56771;DHT22;42641;59.794;17.616;2023-02-15T09:06:24;4.50;99.90
56771;DHT22;42641;59.794;17.616;2023-02-15T09:08:51;4.50;99.90
56771;DHT22;42641;59.794;17.616;2023-02-15T09:11:26;4.50;99.90
56771;DHT22;42641;59.794;17.616;2023-02-15T09:13:57;4.60;99.90
56771;DHT22;42641;59.794;17.616;2023-02-15T09:16:26;4.50;99.90
56771;DHT22;42641;59.794;17.616;2023-02-15T09:18:53;4.60;99.90
56771;DHT22;42641;59.794;17.616;2023-02-15T09:21:21;4.60;99.90
56771;DHT22;42641;59.794;17.616;2023-02-15T09:23:51;4.60;99.90
56771;DHT22;42641;59.794;17.616;2023-02-15T09:26:22;4.60;99.90
56771;DHT22;42641;59.794;17.616;2023-02-15T09:28:55;4.70;99.90
56771;DHT22;42641;59.794;17.616;2023-02-15T09:31:24;4.70;99.90
56771;DHT22;42641;59.794;17.616;2023-02-15T09:33:51;4.70;99.90
56771;DHT22;42641;59.794;17.616;2023-02-15T09:36:25;4.70;99.90
56771;DHT22;42641;59.794;17.616;2023-02-15T09:38:57;4.80;99.90
56771;DHT22;42641;59.794;17.616;2023-02-15T10:00:59;4.80;99.90
56771;DHT22;42641;59.794;17.616;2023-02-15T10:06:44;4.90;99.90
56771;DHT22;42641;59.794;17.616;2023-02-15T10:09:33;4.90;99.90
56771;DHT22;42641;59.794;17.616;2023-02-15T10:20:36;4.90;99.90
56771;DHT22;42641;59.794;17.616;2023-02-15T10:28:50;4.90;99.90
56771;DHT22;42641;59.794;17.616;2023-02-15T10:31:34;5.00;99.90
56771;DHT22;42641;59.794;17.616;2023-02-15T10:34:19;5.00;99.90
56771;DHT22;42641;59.794;17.616;2023-02-15T10:37:08;5.00;99.90
56771;DHT22;42641;59.794;17.616;2023-02-15T10:42:45;5.00;99.90
56771;DHT22;42641;59.794;17.616;2023-02-15T10:50:55;5.10;99.90
56771;DHT22;42641;59.794;17.616;2023-02-15T10:56:25;5.20;99.90
56771;DHT22;42641;59.794;17.616;2023-02-15T11:06:56;5.10;99.90
56771;DHT22;42641;59.794;17.616;2023-02-15T11:09:25;5.10;99.90
56771;DHT22;42641;59.794;17.616;2023-02-15T11:11:56;5.10;99.90
56771;DHT22;42641;59.794;17.616;2023-02-15T11:17:12;5.00;99.90
56771;DHT22;42641;59.794;17.616;2023-02-15T11:22:35;5.10;99.90
56771;DHT22;42641;59.794;17.616;2023-02-15T11:25:22;5.10;99.90
56771;DHT22;42641;59.794;17.616;2023-02-15T11:27:49;5.10;99.90
56771;DHT22;42641;59.794;17.616;2023-02-15T11:30:21;5.00;99.90
56771;DHT22;42641;59.794;17.616;2023-02-15T11:32:59;5.00;99.90
56771;DHT22;42641;59.794;17.616;2023-02-15T11:35:37;5.00;99.90
56771;DHT22;42641;59.794;17.616;2023-02-15T11:38:14;5.00;99.90
56771;DHT22;42641;59.794;17.616;2023-02-15T11:46:05;5.00;99.90
56771;DHT22;42641;59.794;17.616;2023-02-15T11:48:32;4.90;99.90
56771;DHT22;42641;59.794;17.616;2023-02-15T11:51:00;4.80;99.90
56771;DHT22;42641;59.794;17.616;2023-02-15T11:53:36;4.80;99.90
56771;DHT22;42641;59.794;17.616;2023-02-15T11:56:03;4.80;99.90
56771;DHT22;42641;59.794;17.616;2023-02-15T11:58:40;4.80;99.90
56771;DHT22;42641;59.794;17.616;2023-02-15T12:03:48;4.80;99.90
56771;DHT22;42641;59.794;17.616;2023-02-15T12:06:29;4.80;99.90
56771;DHT22;42641;59.794;17.616;2023-02-15T12:09:25;4.80;99.90
56771;DHT22;42641;59.794;17.616;2023-02-15T12:15:02;4.80;99.90
56771;DHT22;42641;59.794;17.616;2023-02-15T12:17:32;4.80;99.90
56771;DHT22;42641;59.794;17.616;2023-02-15T12:20:27;4.80;99.90
56771;DHT22;42641;59.794;17.616;2023-02-15T12:23:02;4.80;99.90
56771;DHT22;42641;59.794;17.616;2023-02-15T12:25:37;4.80;99.90
56771;DHT22;42641;59.794;17.616;2023-02-15T12:30:54;4.80;99.90
56771;DHT22;42641;59.794;17.616;2023-02-15T12:33:35;4.90;99.90
56771;DHT22;42641;59.794;17.616;2023-02-15T12:36:22;4.90;99.90
56771;DHT22;42641;59.794;17.616;2023-02-15T12:39:27;4.80;99.90
56771;DHT22;42641;59.794;17.616;2023-02-15T12:44:28;4.80;99.90
56771;DHT22;42641;59.794;17.616;2023-02-15T12:49:35;4.80;99.90
56771;DHT22;42641;59.794;17.616;2023-02-15T12:52:22;4.80;99.90
56771;DHT22;42641;59.794;17.616;2023-02-15T12:54:50;4.80;99.90
56771;DHT22;42641;59.794;17.616;2023-02-15T12:57:24;4.80;99.90
56771;DHT22;42641;59.794;17.616;2023-02-15T13:02:34;4.90;99.90
56771;DHT22;42641;59.794;17.616;2023-02-15T13:07:56;4.80;99.90
56771;DHT22;42641;59.794;17.616;2023-02-15T13:10:29;4.80;99.90
56771;DHT22;42641;59.794;17.616;2023-02-15T13:12:57;4.90;99.90
56771;DHT22;42641;59.794;17.616;2023-02-15T13:15:35;4.90;99.90
56771;DHT22;42641;59.794;17.616;2023-02-15T13:18:05;4.80;99.90
56771;DHT22;42641;59.794;17.616;2023-02-15T13:20:37;4.80;99.90
56771;DHT22;42641;59.794;17.616;2023-02-15T13:23:34;4.80;99.90
56771;DHT22;42641;59.794;17.616;2023-02-15T13:26:04;4.80;99.90
56771;DHT22;42641;59.794;17.616;2023-02-15T13:29:08;4.80;99.90
56771;DHT22;42641;59.794;17.616;2023-02-15T13:31:38;4.70;99.90
56771;DHT22;42641;59.794;17.616;2023-02-15T13:34:15;4.70;99.90
56771;DHT22;42641;59.794;17.616;2023-02-15T13:36:57;4.70;99.90
56771;DHT22;42641;59.794;17.616;2023-02-15T13:39:40;4.80;99.90
56771;DHT22;42641;59.794;17.616;2023-02-15T13:42:24;4.80;99.90
56771;DHT22;42641;59.794;17.616;2023-02-15T13:45:01;4.80;99.90
56771;DHT22;42641;59.794;17.616;2023-02-15T13:47:59;4.80;99.90
56771;DHT22;42641;59.794;17.616;2023-02-15T14:20:24;4.50;99.90
56771;DHT22;42641;59.794;17.616;2023-02-15T14:26:33;4.40;99.90
56771;DHT22;42641;59.794;17.616;2023-02-15T14:31:48;4.50;99.90
56771;DHT22;42641;59.794;17.616;2023-02-15T14:34:48;4.50;99.90
56771;DHT22;42641;59.794;17.616;2023-02-15T14:37:22;4.50;99.90
56771;DHT22;42641;59.794;17.616;2023-02-15T14:42:58;4.50;99.90
56771;DHT22;42641;59.794;17.616;2023-02-15T14:48:21;4.30;99.90
56771;DHT22;42641;59.794;17.616;2023-02-15T14:50:48;4.30;99.90
56771;DHT22;42641;59.794;17.616;2023-02-15T15:01:33;4.20;99.90
56771;DHT22;42641;59.794;17.616;2023-02-15T15:04:03;4.20;99.90
56771;DHT22;42641;59.794;17.616;2023-02-15T15:06:33;4.20;99.90
56771;DHT22;42641;59.794;17.616;2023-02-15T15:09:14;4.20;99.90
56771;DHT22;42641;59.794;17.616;2023-02-15T15:11:49;4.20;99.90
56771;DHT22;42641;59.794;17.616;2023-02-15T15:17:02;4.10;99.90
56771;DHT22;42641;59.794;17.616;2023-02-15T15:24:49;4.10;99.90
56771;DHT22;42641;59.794;17.616;2023-02-15T15:27:46;4.00;99.90
56771;DHT22;42641;59.794;17.616;2023-02-15T15:32:59;4.00;99.90
56771;DHT22;42641;59.794;17.616;2023-02-15T15:35:47;4.00;99.90
56771;DHT22;42641;59.794;17.616;2023-02-15T15:38:45;4.00;99.90
56771;DHT22;42641;59.794;17.616;2023-02-15T15:47:34;4.00;99.90
56771;DHT22;42641;59.794;17.616;2023-02-15T15:49:37;4.00;99.90
56771;DHT22;42641;59.794;17.616;2023-02-15T15:52:16;3.90;99.90
56771;DHT22;42641;59.794;17.616;2023-02-15T15:54:47;3.90;99.90
56771;DHT22;42641;59.794;17.616;2023-02-15T15:57:29;3.80;99.90
56771;DHT22;42641;59.794;17.616;2023-02-15T15:59:59;3.80;99.90
56771;DHT22;42641;59.794;17.616;2023-02-15T16:02:26;3.90;99.90
56771;DHT22;42641;59.794;17.616;2023-02-15T16:04:53;3.80;99.90
56771;DHT22;42641;59.794;17.616;2023-02-15T16:10:00;3.80;99.90
56771;DHT22;42641;59.794;17.616;2023-02-15T16:12:29;3.70;99.90
56771;DHT22;42641;59.794;17.616;2023-02-15T16:14:56;3.70;99.90
56771;DHT22;42641;59.794;17.616;2023-02-15T16:17:26;3.70;99.90
56771;DHT22;42641;59.794;17.616;2023-02-15T16:20:03;3.70;99.90
56771;DHT22;42641;59.794;17.616;2023-02-15T16:22:32;3.70;99.90
56771;DHT22;42641;59.794;17.616;2023-02-15T16:27:38;3.70;99.90
56771;DHT22;42641;59.794;17.616;2023-02-15T16:30:31;3.70;99.90
56771;DHT22;42641;59.794;17.616;2023-02-15T16:33:18;3.70;99.90
56771;DHT22;42641;59.794;17.616;2023-02-15T16:35:57;3.70;99.90
56771;DHT22;42641;59.794;17.616;2023-02-15T16:43:47;3.70;99.90
56771;DHT22;42641;59.794;17.616;2023-02-15T16:46:41;3.70;99.90
56771;DHT22;42641;59.794;17.616;2023-02-15T16:49:24;3.70;99.90
56771;DHT22;42641;59.794;17.616;2023-02-15T16:52:05;3.70;99.90
56771;DHT22;42641;59.794;17.616;2023-02-15T16:54:33;3.70;99.90
56771;DHT22;42641;59.794;17.616;2023-02-15T16:57:01;3.70;99.90
56771;DHT22;42641;59.794;17.616;2023-02-15T16:59:34;3.60;99.90
56771;DHT22;42641;59.794;17.616;2023-02-15T17:02:27;3.70;99.90
56771;DHT22;42641;59.794;17.616;2023-02-15T17:05:06;3.70;99.90
56771;DHT22;42641;59.794;17.616;2023-02-15T17:07:33;3.70;99.90
56771;DHT22;42641;59.794;17.616;2023-02-15T17:10:31;3.70;99.90
56771;DHT22;42641;59.794;17.616;2023-02-15T17:13:04;3.60;99.90
56771;DHT22;42641;59.794;17.616;2023-02-15T17:18:33;3.60;99.90
56771;DHT22;42641;59.794;17.616;2023-02-15T17:21:09;3.60;99.90
56771;DHT22;42641;59.794;17.616;2023-02-15T17:23:50;3.60;99.90
56771;DHT22;42641;59.794;17.616;2023-02-15T17:26:30;3.60;99.90
56771;DHT22;42641;59.794;17.616;2023-02-15T17:28:59;3.50;99.90
56771;DHT22;42641;59.794;17.616;2023-02-15T17:31:31;3.50;99.90
56771;DHT22;42641;59.794;17.616;2023-02-15T17:33:59;3.50;99.90
56771;DHT22;42641;59.794;17.616;2023-02-15T17:36:28;3.50;99.90
56771;DHT22;42641;59.794;17.616;2023-02-15T17:39:03;3.50;99.90
56771;DHT22;42641;59.794;17.616;2023-02-15T17:41:34;3.50;99.90
56771;DHT22;42641;59.794;17.616;2023-02-15T17:44:03;3.50;99.90
56771;DHT22;42641;59.794;17.616;2023-02-15T17:46:35;3.50;99.90
56771;DHT22;42641;59.794;17.616;2023-02-15T17:49:06;3.50;99.90
56771;DHT22;42641;59.794;17.616;2023-02-15T17:51:33;3.50;99.90
56771;DHT22;42641;59.794;17.616;2023-02-15T17:54:01;3.50;99.90
56771;DHT22;42641;59.794;17.616;2023-02-15T17:56:47;3.50;99.90
56771;DHT22;42641;59.794;17.616;2023-02-15T17:59:13;3.50;99.90
56771;DHT22;42641;59.794;17.616;2023-02-15T18:01:46;3.50;99.90
56771;DHT22;42641;59.794;17.616;2023-02-15T18:04:33;3.50;99.90
56771;DHT22;42641;59.794;17.616;2023-02-15T18:07:20;3.50;99.90
56771;DHT22;42641;59.794;17.616;2023-02-15T18:10:17;3.50;99.90
56771;DHT22;42641;59.794;17.616;2023-02-15T18:13:03;3.50;99.90
56771;DHT22;42641;59.794;17.616;2023-02-15T18:15:29;3.50;99.90
56771;DHT22;42641;59.794;17.616;2023-02-15T18:17:56;3.50;99.90
56771;DHT22;42641;59.794;17.616;2023-02-15T18:20:35;3.50;99.90
56771;DHT22;42641;59.794;17.616;2023-02-15T18:23:02;3.50;99.90
56771;DHT22;42641;59.794;17.616;2023-02-15T18:25:28;3.50;99.90
56771;DHT22;42641;59.794;17.616;2023-02-15T18:27:55;3.50;99.90
56771;DHT22;42641;59.794;17.616;2023-02-15T18:30:23;3.50;99.90
56771;DHT22;42641;59.794;17.616;2023-02-15T18:32:53;3.40;99.90
56771;DHT22;42641;59.794;17.616;2023-02-15T18:35:23;3.40;99.90
56771;DHT22;42641;59.794;17.616;2023-02-15T18:37:52;3.50;99.90
56771;DHT22;42641;59.794;17.616;2023-02-15T18:40:22;3.40;99.90
56771;DHT22;42641;59.794;17.616;2023-02-15T18:42:49;3.40;99.90
56771;DHT22;42641;59.794;17.616;2023-02-15T18:45:22;3.40;99.90
56771;DHT22;42641;59.794;17.616;2023-02-15T18:47:50;3.40;99.90
56771;DHT22;42641;59.794;17.616;2023-02-15T18:50:19;3.50;99.90
56771;DHT22;42641;59.794;17.616;2023-02-15T18:52:47;3.50;99.90
56771;DHT22;42641;59.794;17.616;2023-02-15T18:55:23;3.40;99.90
56771;DHT22;42641;59.794;17.616;2023-02-15T18:57:53;3.40;99.90
56771;DHT22;42641;59.794;17.616;2023-02-15T19:00:28;3.40;99.90
56771;DHT22;42641;59.794;17.616;2023-02-15T19:02:55;3.40;99.90
56771;DHT22;42641;59.794;17.616;2023-02-15T19:05:22;3.40;99.90
56771;DHT22;42641;59.794;17.616;2023-02-15T19:07:50;3.40;99.90
56771;DHT22;42641;59.794;17.616;2023-02-15T19:10:22;3.30;99.90
56771;DHT22;42641;59.794;17.616;2023-02-15T19:12:49;3.30;99.90
56771;DHT22;42641;59.794;17.616;2023-02-15T19:15:23;3.40;99.90
56771;DHT22;42641;59.794;17.616;2023-02-15T19:17:50;3.40;99.90
56771;DHT22;42641;59.794;17.616;2023-02-15T19:20:25;3.40;99.90